KHLC

Hill City Municipal Airport

Hill City, Kansas, USA
METAR KHLC 162353Z AUTO 04010KT 10SM CLR 06/M07 A2981 RMK AO2 SLP106 T00561072 10133 20056 51016
Observed Flight Rules
Dec-16 @ 23:53 UTC (32 minutes ago) Visual Flight Rules
Wind Visibility Clouds
40° at 10 knots 10 miles
  • Clear skies
Temperatures Readings
Current 6°C / 43°F
Dewpoint -7°C / 19°F
Humidity 39%
Altimeter 29.81" Hg
Pressure 1010.6 hPa
Elevation 669
METAR KHLC 162353Z AUTO 04010KT 10SM CLR 06/M07 A2981 RMK AO2 SLP106 T00561072 10133 20056 51016
Observed Flight Rules
Dec-16 @ 23:53 UTC
(32 minutes ago)
VFR
Wind Visibility
40° at 10 knots 10 miles
Clouds
  • Clear skies
Temperature Dewpoint
6°C / 43°F -7°C / 19°F
Humidity Altimeter Pressure
39% 29.81" Hg 1010.6 hPa